createdAt,value
2022-09-03T00:00:18.834Z,96378.77
2022-09-03T00:04:21.366Z,96381.59
2022-09-03T00:08:19.590Z,96383.79
2022-09-03T00:12:21.539Z,96386.44
2022-09-03T00:16:14.826Z,96383.59
2022-09-03T00:20:11.543Z,96379.36
2022-09-03T00:24:14.052Z,96379.39
2022-09-03T00:28:07.901Z,96379.77
2022-09-03T01:07:21.903Z,96384.29
2022-09-03T01:11:20.165Z,96382.48
2022-09-03T01:15:30.701Z,96388.33
2022-09-03T01:19:29.062Z,96395.96
2022-09-03T01:23:25.448Z,96400.52
2022-09-03T01:27:29.878Z,96401.40
2022-09-03T01:31:15.048Z,96400.89
2022-09-03T01:35:12.697Z,96398.08
2022-09-03T01:39:13.784Z,96397.54
2022-09-03T01:43:24.722Z,96402.32
2022-09-03T01:47:13.388Z,96401.40
2022-09-03T01:51:03.046Z,96402.13
2022-09-03T01:54:59.593Z,96404.71
2022-09-03T01:59:10.397Z,96409.15
2022-09-03T02:03:05.859Z,96408.55
2022-09-03T02:06:58.662Z,96410.65
2022-09-03T02:10:50.362Z,96414.13
2022-09-03T02:14:42.565Z,96417.75
2022-09-03T02:18:34.844Z,96420.52
2022-09-03T02:22:34.770Z,96423.78
2022-09-03T02:26:27.744Z,96425.52
2022-09-03T02:42:17.987Z,96420.24
2022-09-03T02:46:12.758Z,96424.73
2022-09-03T02:50:02.890Z,96428.23
2022-09-03T02:53:55.629Z,96429.28
2022-09-03T03:44:35.375Z,96421.29
2022-09-03T03:48:26.318Z,96427.17
2022-09-03T03:52:18.469Z,96429.13
2022-09-03T03:56:02.429Z,96430.90
2022-09-03T03:59:55.310Z,96435.22
2022-09-03T04:23:18.907Z,96430.59
2022-09-03T04:27:12.512Z,96441.24
2022-09-03T04:31:05.383Z,96441.33
2022-09-03T04:35:02.375Z,96440.69
2022-09-03T04:46:59.043Z,96442.89
2022-09-03T04:50:52.255Z,96452.17
2022-09-03T04:54:44.668Z,96451.75
2022-09-03T04:58:37.042Z,96454.71
2022-09-03T05:02:14.276Z,96456.38
2022-09-03T05:21:36.835Z,96472.00
2022-09-03T05:25:28.974Z,96478.89
2022-09-03T05:29:21.088Z,96480.84
2022-09-03T05:41:24.073Z,96493.69
2022-09-03T05:45:17.008Z,96499.35
2022-09-03T06:09:00.568Z,96500.23
2022-09-03T06:12:55.392Z,96497.34
2022-09-03T06:16:46.647Z,96502.64
2022-09-03T06:32:31.087Z,96509.53
2022-09-03T06:36:22.899Z,96512.23
2022-09-03T06:40:14.389Z,96510.86
2022-09-03T06:44:06.923Z,96504.88
2022-09-03T07:03:11.930Z,96513.85
2022-09-03T07:07:03.659Z,96513.81
2022-09-03T07:10:47.951Z,96521.06
2022-09-03T07:14:39.168Z,96527.98
2022-09-03T07:38:06.191Z,96548.41
2022-09-03T07:41:43.835Z,96551.25
2022-09-03T07:45:37.216Z,96554.64
2022-09-03T07:49:28.717Z,96562.29
2022-09-03T08:05:01.244Z,96568.17
2022-09-03T08:08:42.193Z,96577.95
2022-09-03T08:12:34.604Z,96578.23
2022-09-03T08:16:08.918Z,96577.99
2022-09-03T08:43:06.595Z,96577.14
2022-09-03T08:46:39.647Z,96576.40
2022-09-03T08:50:20.908Z,96581.64
2022-09-03T08:54:03.757Z,96580.46
2022-09-03T08:57:16.541Z,96586.55
2022-09-03T09:00:38.954Z,96586.13
2022-09-03T09:04:05.321Z,96591.02
2022-09-03T09:07:15.898Z,96592.83
2022-09-03T09:11:04.701Z,96589.96
2022-09-03T09:15:14.491Z,96584.02
2022-09-03T09:18:33.248Z,96581.90
2022-09-03T09:22:16.848Z,96581.38
2022-09-03T10:04:40.828Z,96587.08
2022-09-03T10:11:09.092Z,96585.44
2022-09-03T10:14:02.578Z,96590.15
2022-09-03T10:17:04.632Z,96581.80
2022-09-03T10:20:47.891Z,96581.41
2022-09-03T10:23:47.460Z,96577.59
2022-09-03T10:26:29.548Z,96578.92
2022-09-03T10:29:21.485Z,96577.31
2022-09-03T10:32:27.399Z,96579.64
2022-09-03T10:36:12.000Z,96576.56
2022-09-03T10:39:13.630Z,96575.02
2022-09-03T10:42:11.335Z,96574.34
2022-09-03T10:45:41.481Z,96571.13
2022-09-03T10:49:04.689Z,96572.33
2022-09-03T10:52:29.652Z,96566.80
2022-09-03T10:55:51.125Z,96561.85
2022-09-03T10:59:10.227Z,96562.89
2022-09-03T11:02:49.870Z,96557.62
2022-09-03T11:05:38.826Z,96560.27
2022-09-03T11:15:14.455Z,96563.83
2022-09-03T11:17:59.057Z,96563.74
2022-09-03T11:20:40.743Z,96560.61
2022-09-03T11:23:23.504Z,96559.45
2022-09-03T11:26:20.434Z,96553.17
2022-09-03T11:29:50.707Z,96548.93
2022-09-03T11:33:21.075Z,96554.41
2022-09-03T11:36:02.073Z,96552.60
2022-09-03T11:38:54.779Z,96553.13
2022-09-03T11:41:36.073Z,96559.52
2022-09-03T11:44:51.200Z,96559.30
2022-09-03T11:47:44.810Z,96559.02
2022-09-03T11:50:38.730Z,96559.91
2022-09-03T11:54:21.471Z,96561.07
2022-09-03T11:57:04.673Z,96562.23
2022-09-03T11:59:49.749Z,96561.52
2022-09-03T12:03:27.956Z,96561.06
2022-09-03T12:06:45.659Z,96559.47
2022-09-03T12:09:59.411Z,96560.28
2022-09-03T12:13:14.289Z,96564.14
2022-09-03T12:15:59.593Z,96560.06
2022-09-03T12:19:05.405Z,96555.99
2022-09-03T12:22:15.650Z,96556.40
2022-09-03T12:25:27.567Z,96554.81
2022-09-03T12:28:48.071Z,96548.72
2022-09-03T12:31:58.741Z,96547.35
2022-09-03T12:35:02.565Z,96554.09
2022-09-03T12:38:06.833Z,96557.24
2022-09-03T12:41:26.819Z,96548.46
2022-09-03T12:44:34.953Z,96545.92
2022-09-03T12:47:37.123Z,96547.09
2022-09-03T12:50:42.623Z,96551.60
2022-09-03T12:53:51.028Z,96546.65
2022-09-03T12:56:49.138Z,96543.13
2022-09-03T12:59:46.374Z,96547.71
2022-09-03T13:03:05.790Z,96549.67
2022-09-03T13:06:14.113Z,96547.05
2022-09-03T13:09:06.002Z,96551.62
2022-09-03T13:12:11.262Z,96553.80
2022-09-03T13:15:26.968Z,96562.41
2022-09-03T13:18:35.671Z,96564.52
2022-09-03T13:21:39.667Z,96564.65
2022-09-03T13:25:08.467Z,96569.48
2022-09-03T13:28:32.694Z,96571.45
2022-09-03T13:31:28.071Z,96570.70
2022-09-03T13:34:26.765Z,96573.61
2022-09-03T13:37:56.030Z,96569.45
2022-09-03T13:41:00.108Z,96573.02
2022-09-03T13:44:30.196Z,96576.41
2022-09-03T13:47:55.162Z,96574.92
2022-09-03T13:50:38.054Z,96571.88
2022-09-03T13:54:01.604Z,96579.77
2022-09-03T13:56:59.085Z,96579.86
2022-09-03T14:00:09.404Z,96577.89
2022-09-03T14:03:18.209Z,96577.98
2022-09-03T14:06:29.650Z,96579.36
2022-09-03T14:09:35.853Z,96581.42
2022-09-03T14:12:46.399Z,96577.38
2022-09-03T14:15:45.621Z,96578.33
2022-09-03T14:19:17.334Z,96573.30
2022-09-03T14:22:34.552Z,96579.47
2022-09-03T14:25:39.326Z,96584.19
2022-09-03T14:28:50.256Z,96580.59
2022-09-03T14:32:18.970Z,96582.29
2022-09-03T14:35:56.796Z,96577.70
2022-09-03T14:39:15.156Z,96583.70
2022-09-03T14:43:04.955Z,96584.63
2022-09-03T14:46:18.928Z,96582.03
2022-09-03T14:49:38.441Z,96581.77
2022-09-03T14:53:10.768Z,96587.60
2022-09-03T14:56:48.725Z,96585.54
2022-09-03T14:59:39.077Z,96592.71
2022-09-03T15:02:55.275Z,96591.91
2022-09-03T15:06:30.893Z,96594.63
2022-09-03T15:09:47.012Z,96596.02
2022-09-03T15:13:26.241Z,96595.12
2022-09-03T15:16:42.510Z,96599.51
2022-09-03T15:20:15.374Z,96608.16
2022-09-03T15:23:34.224Z,96603.61
2022-09-03T15:26:53.898Z,96605.49
2022-09-03T15:30:08.113Z,96608.48
2022-09-03T15:33:19.091Z,96609.88
2022-09-03T15:36:30.877Z,96611.08
2022-09-03T16:32:39.034Z,96631.52
2022-09-03T16:36:37.253Z,96630.52
2022-09-03T16:40:29.586Z,96632.33
2022-09-03T16:44:11.816Z,96641.70
2022-09-03T16:48:08.589Z,96644.60
2022-09-03T16:52:00.994Z,96650.59
2022-09-03T16:55:49.325Z,96650.77
2022-09-03T16:59:38.616Z,96648.40
2022-09-03T17:03:00.055Z,96639.80
2022-09-03T17:06:26.692Z,96645.92
2022-09-03T17:10:02.900Z,96652.48
2022-09-03T17:13:30.630Z,96660.21
2022-09-03T17:17:17.395Z,96665.04
2022-09-03T17:20:49.560Z,96670.71
2022-09-03T17:24:02.923Z,96674.23
2022-09-03T17:27:34.695Z,96679.13
2022-09-03T17:31:22.454Z,96679.54
2022-09-03T17:35:26.859Z,96682.73
2022-09-03T17:38:55.459Z,96688.02
2022-09-03T17:42:41.254Z,96691.33
2022-09-03T17:46:20.062Z,96690.98
2022-09-03T17:49:48.052Z,96690.08
2022-09-03T17:53:09.395Z,96697.85
2022-09-03T18:00:38.726Z,96695.27
2022-09-03T18:03:55.866Z,96705.73
2022-09-03T18:21:53.231Z,96718.91
2022-09-03T18:25:06.477Z,96721.52
2022-09-03T18:28:38.575Z,96721.83
2022-09-03T18:32:00.655Z,96720.77
2022-09-03T18:35:32.118Z,96724.42
2022-09-03T18:39:14.199Z,96729.42
2022-09-03T18:43:22.243Z,96725.52
2022-09-03T18:51:00.006Z,96732.93
2022-09-03T18:55:08.329Z,96733.69
2022-09-03T18:59:07.156Z,96742.36
2022-09-03T19:02:55.823Z,96744.27
2022-09-03T19:06:58.831Z,96749.48
2022-09-03T19:10:48.267Z,96745.86
2022-09-03T19:14:37.644Z,96744.19
2022-09-03T19:18:33.476Z,96749.23
2022-09-03T19:22:16.295Z,96748.39
2022-09-03T19:26:02.788Z,96752.20
2022-09-03T19:29:42.715Z,96757.27
2022-09-03T19:33:50.913Z,96760.61
2022-09-03T19:37:47.214Z,96762.15
2022-09-03T19:41:41.118Z,96762.91
2022-09-03T19:45:33.772Z,96760.98
2022-09-03T20:05:15.549Z,96773.31
2022-09-03T20:08:54.186Z,96773.05
2022-09-03T20:12:37.708Z,96769.61
2022-09-03T20:16:29.227Z,96769.36
2022-09-03T20:19:56.286Z,96774.77
2022-09-03T20:23:41.572Z,96777.98
2022-09-03T20:27:13.007Z,96784.35
2022-09-03T20:31:14.253Z,96791.23
2022-09-03T20:34:55.652Z,96791.16
2022-09-03T20:38:47.251Z,96794.25
2022-09-03T20:42:54.479Z,96793.02
2022-09-03T20:46:55.601Z,96791.31
2022-09-03T20:50:53.007Z,96791.35
2022-09-03T20:54:46.967Z,96796.65
2022-09-03T20:59:00.436Z,96795.69
2022-09-03T21:03:00.611Z,96795.34
2022-09-03T21:07:12.052Z,96793.27
2022-09-03T21:11:16.913Z,96793.29
2022-09-03T21:15:22.478Z,96796.10
2022-09-03T21:19:17.864Z,96796.25
2022-09-03T21:23:22.803Z,96798.77
2022-09-03T21:27:22.228Z,96803.70
2022-09-03T21:31:16.858Z,96807.27
2022-09-03T21:35:11.522Z,96804.41
2022-09-03T21:39:11.063Z,96809.82
2022-09-03T21:43:15.734Z,96816.21
2022-09-03T21:47:08.301Z,96811.18
2022-09-03T21:51:03.738Z,96808.84
2022-09-03T21:55:13.612Z,96808.41
2022-09-03T21:59:09.134Z,96806.83
2022-09-03T22:03:07.460Z,96811.58
2022-09-03T22:07:02.751Z,96816.02
2022-09-03T22:11:09.207Z,96813.91
2022-09-03T22:15:13.925Z,96814.77
2022-09-03T22:19:09.717Z,96821.58
2022-09-03T22:27:02.942Z,96822.42
2022-09-03T22:30:57.842Z,96824.73
2022-09-03T22:34:51.884Z,96827.75
2022-09-03T22:38:44.828Z,96822.70
2022-09-03T22:42:33.074Z,96833.80
2022-09-03T22:46:26.643Z,96841.75
2022-09-03T22:50:34.063Z,96839.61
2022-09-03T22:54:46.038Z,96838.65
2022-09-03T22:58:38.467Z,96835.77
2022-09-03T23:02:48.790Z,96833.81
2022-09-03T23:06:41.678Z,96842.00
2022-09-03T23:10:37.538Z,96842.52
2022-09-03T23:14:30.265Z,96844.85
2022-09-03T23:53:55.198Z,96842.71
2022-09-03T23:58:00.341Z,96842.07
